Time;durP1;ratioP1;P1;durP2;ratioP2;P2;SDS_P1;SDS_P2;PMS_P1;PMS_P2;Temp;Humidity;BMP_temperature;BMP_pressure;BME280_temperature;BME280_humidity;BME280_pressure;Samples;Min_cycle;Max_cycle;Signal;HPM_P1;HPM_P2
2022/06/19 00:00:06;;;;;;;6.83;5.10;;;16.70;99.90;16.20;100054;;;;601986;238;24103;-83
2022/06/19 00:02:38;;;;;;;6.03;5.00;;;16.70;99.90;16.20;100038;;;;601957;236;24052;-83
2022/06/19 00:05:02;;;;;;;5.80;4.87;;;16.70;99.90;16.20;100038;;;;602009;238;24039;-83
2022/06/19 00:07:32;;;;;;;5.40;4.93;;;16.70;99.90;16.20;100033;;;;602155;238;24087;-82
2022/06/19 00:09:57;;;;;;;5.90;4.87;;;16.70;99.90;16.20;100030;;;;602177;238;24049;-83
2022/06/19 00:12:25;;;;;;;6.73;4.80;;;16.80;99.90;16.20;100038;;;;602167;238;24137;-83
2022/06/19 00:14:53;;;;;;;5.63;5.13;;;16.80;99.90;16.20;100031;;;;602026;235;24047;-84
2022/06/19 00:17:24;;;;;;;9.57;6.12;;;16.80;99.90;16.30;100035;;;;596912;238;34972;-81
2022/06/19 00:19:52;;;;;;;8.17;5.37;;;16.80;99.90;16.30;100039;;;;601725;235;24044;-83
2022/06/19 00:22:17;;;;;;;6.63;4.70;;;16.80;99.90;16.20;100026;;;;601829;236;24114;-84
2022/06/19 00:24:45;;;;;;;4.97;4.53;;;16.80;99.90;16.20;100035;;;;603769;237;24086;-83
2022/06/19 00:27:13;;;;;;;4.77;4.27;;;16.70;99.90;16.20;100047;;;;603145;235;24179;-83
2022/06/19 00:29:45;;;;;;;6.60;5.13;;;16.70;99.90;16.10;100049;;;;603037;238;24060;-83
2022/06/19 00:32:09;;;;;;;5.43;4.97;;;16.70;99.90;16.10;100058;;;;602435;238;24031;-83
2022/06/19 00:34:41;;;;;;;6.87;4.77;;;16.60;99.90;16.10;100047;;;;602783;238;24068;-80
2022/06/19 00:37:10;;;;;;;7.70;4.77;;;16.60;99.90;16.10;100045;;;;602448;238;24080;-81
2022/06/19 00:39:39;;;;;;;8.00;5.50;;;16.60;99.90;16.00;100035;;;;602833;238;24023;-83
2022/06/19 00:42:01;;;;;;;7.70;5.27;;;16.60;99.90;16.00;100043;;;;602664;238;24062;-83
2022/06/19 00:44:30;;;;;;;5.80;5.20;;;16.60;99.90;16.00;100032;;;;602830;238;24083;-83
2022/06/19 00:47:19;;;;;;;7.03;4.63;;;16.60;99.90;16.10;100031;;;;602856;235;24044;-82
2022/06/19 00:49:59;;;;;;;7.90;5.20;;;17.00;99.90;16.10;100036;;;;602627;238;24059;-82
2022/06/19 00:52:33;;;;;;;5.90;5.00;;;16.60;99.90;16.10;100037;;;;601740;238;24056;-83
2022/06/19 00:55:09;;;;;;;7.53;4.90;;;16.70;99.90;16.10;100051;;;;602187;238;24083;-83
2022/06/19 00:57:43;;;;;;;4.90;4.37;;;16.70;99.90;16.10;100053;;;;602093;238;24063;-83
2022/06/19 01:00:14;;;;;;;5.10;4.60;;;16.70;99.90;16.20;100050;;;;602188;238;24048;-84
2022/06/19 01:02:43;;;;;;;5.53;5.03;;;16.70;99.90;16.20;100056;;;;601853;238;24100;-84
2022/06/19 01:05:13;;;;;;;5.30;4.90;;;16.70;99.90;16.20;100062;;;;602156;235;24040;-85
2022/06/19 01:07:41;;;;;;;7.70;5.90;;;16.80;99.90;16.20;100077;;;;602146;238;24049;-82
2022/06/19 01:10:13;;;;;;;8.93;4.70;;;16.80;99.90;16.20;100083;;;;602231;238;24072;-81
2022/06/19 01:12:38;;;;;;;8.50;5.23;;;16.80;99.90;16.20;100083;;;;602039;236;24071;-81
2022/06/19 01:15:05;;;;;;;7.20;5.33;;;16.80;99.90;16.20;100092;;;;602079;238;24087;-84
2022/06/19 01:17:34;;;;;;;7.23;5.07;;;16.80;99.90;16.20;100095;;;;602189;235;24048;-84
2022/06/19 01:20:05;;;;;;;6.47;5.47;;;16.80;99.90;16.20;100081;;;;602037;235;24051;-83
2022/06/19 01:22:38;;;;;;;7.10;5.23;;;16.80;99.90;16.10;100079;;;;602116;238;24071;-81
2022/06/19 01:25:18;;;;;;;12.03;5.50;;;16.70;99.90;16.10;100077;;;;601714;238;24039;-81
2022/06/19 01:30:40;;;;;;;10.90;5.80;;;16.60;99.90;15.90;100062;;;;602477;238;24071;-83
2022/06/19 01:33:09;;;;;;;8.57;5.17;;;16.50;99.90;15.90;100065;;;;602122;235;24077;-82
2022/06/19 01:35:40;;;;;;;8.47;5.83;;;16.50;99.90;15.80;100060;;;;603199;236;24059;-81
2022/06/19 01:38:10;;;;;;;6.27;5.67;;;16.40;99.90;15.70;100050;;;;603270;238;24055;-82
2022/06/19 01:40:38;;;;;;;7.45;6.30;;;16.40;99.90;15.70;100057;;;;598168;235;34964;-83
2022/06/19 01:43:06;;;;;;;6.97;5.70;;;16.30;99.90;15.70;100051;;;;603535;238;24063;-84
2022/06/19 01:45:34;;;;;;;7.23;5.47;;;16.30;99.90;15.60;100052;;;;603467;238;24076;-82
2022/06/19 01:48:05;;;;;;;8.57;5.63;;;16.20;99.90;15.60;100049;;;;603645;235;24058;-83
2022/06/19 01:50:30;;;;;;;10.93;5.53;;;16.20;99.90;15.60;100058;;;;603113;238;24039;-82
2022/06/19 01:52:57;;;;;;;7.60;6.37;;;16.20;99.90;15.60;100051;;;;603498;238;24100;-81
2022/06/19 01:55:28;;;;;;;9.37;5.73;;;16.20;99.90;15.60;100054;;;;602397;238;24047;-81
2022/06/19 01:57:53;;;;;;;7.47;5.67;;;16.20;99.90;15.60;100060;;;;602395;238;24036;-81
2022/06/19 02:00:22;;;;;;;9.10;5.50;;;16.20;99.90;15.60;100063;;;;602730;235;24217;-82
2022/06/19 02:02:50;;;;;;;12.03;5.77;;;16.20;99.90;15.60;100060;;;;602897;235;24048;-80
2022/06/19 02:05:21;;;;;;;7.60;4.83;;;16.20;99.90;15.50;100059;;;;599945;238;24072;-83
2022/06/19 02:07:49;;;;;;;8.30;5.47;;;16.10;99.90;15.50;100045;;;;602373;238;24046;-84
2022/06/19 02:10:14;;;;;;;6.67;6.07;;;16.10;99.90;15.50;100051;;;;602632;238;24033;-82
2022/06/19 02:12:46;;;;;;;10.30;5.73;;;16.00;99.90;15.40;100041;;;;602648;235;24043;-82
2022/06/19 02:15:10;;;;;;;7.93;6.10;;;16.00;99.90;15.40;100027;;;;602145;238;24075;-82
2022/06/19 02:17:39;;;;;;;7.73;5.80;;;15.90;99.90;15.40;100017;;;;602624;235;24062;-82
2022/06/19 02:20:07;;;;;;;8.03;6.27;;;15.90;99.90;15.30;100011;;;;602563;238;24098;-83
2022/06/19 02:22:37;;;;;;;15.37;5.90;;;15.90;99.90;15.30;100007;;;;602354;235;24042;-82
2022/06/19 02:25:02;;;;;;;10.33;5.57;;;15.90;99.90;15.30;100008;;;;601829;238;24032;-83
2022/06/19 02:27:31;;;;;;;6.93;6.07;;;15.80;99.90;15.20;100017;;;;601972;238;24121;-84
2022/06/19 02:30:03;;;;;;;7.17;5.80;;;15.80;99.90;15.20;100004;;;;602171;235;24105;-82
2022/06/19 02:32:27;;;;;;;8.67;6.13;;;15.80;99.90;15.20;100008;;;;601858;238;24026;-83
2022/06/19 02:34:55;;;;;;;8.53;6.10;;;15.80;99.90;15.20;100020;;;;601959;238;24056;-84
2022/06/19 02:37:23;;;;;;;8.90;6.63;;;15.80;99.90;15.20;100024;;;;602167;238;24075;-83
2022/06/19 02:39:59;;;;;;;9.00;6.73;;;15.80;99.90;15.20;100019;;;;602091;236;24050;-83
2022/06/19 02:42:48;;;;;;;7.63;6.90;;;15.80;99.90;15.20;100022;;;;602241;238;24039;-82
2022/06/19 02:45:19;;;;;;;7.10;6.47;;;15.80;99.90;15.10;100020;;;;602326;235;24012;-83
2022/06/19 02:47:47;;;;;;;8.50;6.80;;;15.70;99.90;15.10;100020;;;;604162;236;24043;-83
2022/06/19 02:50:14;;;;;;;7.50;6.33;;;15.70;99.90;15.10;100027;;;;603403;235;24149;-84
2022/06/19 02:52:43;;;;;;;7.47;6.33;;;15.70;99.90;15.10;100026;;;;602281;238;25084;-83
2022/06/19 02:55:11;;;;;;;11.43;6.83;;;15.70;99.90;15.20;100030;;;;602856;238;24156;-84
2022/06/19 02:57:39;;;;;;;8.27;6.53;;;15.80;99.90;15.20;100027;;;;602839;238;24124;-85
2022/06/19 03:00:08;;;;;;;6.77;6.17;;;15.80;99.90;15.30;100014;;;;602695;235;24080;-83
2022/06/19 03:02:36;;;;;;;7.07;6.37;;;15.90;99.90;15.40;100032;;;;602852;238;24028;-85
2022/06/19 03:05:04;;;;;;;7.60;6.50;;;15.90;99.90;15.40;100022;;;;602555;238;24061;-85
2022/06/19 03:07:32;;;;;;;6.97;6.27;;;16.00;99.90;15.50;100031;;;;602499;238;24063;-82
2022/06/19 03:10:01;;;;;;;8.27;6.80;;;16.20;99.90;15.60;100022;;;;602795;235;24047;-82
2022/06/19 03:12:29;;;;;;;8.13;6.63;;;16.10;99.90;15.70;100029;;;;602748;238;24079;-81
2022/06/19 03:14:57;;;;;;;6.73;6.13;;;16.30;99.90;15.90;100028;;;;602886;238;24037;-83
2022/06/19 03:17:24;;;;;;;7.40;6.70;;;16.40;99.90;16.10;100037;;;;602753;238;24081;-82
2022/06/19 03:19:53;;;;;;;7.60;6.30;;;16.80;99.90;16.30;100040;;;;602721;238;24087;-81
2022/06/19 03:22:24;;;;;;;7.60;6.17;;;16.80;99.90;16.60;100055;;;;602694;238;24047;-81
2022/06/19 03:24:49;;;;;;;6.67;5.97;;;17.10;99.90;16.80;100047;;;;602046;238;24052;-83
2022/06/19 03:27:21;;;;;;;7.47;6.17;;;17.60;99.90;17.00;100039;;;;602390;235;24064;-81
2022/06/19 03:29:45;;;;;;;5.93;5.43;;;17.60;99.90;17.20;100045;;;;602076;235;24059;-81
2022/06/19 03:32:13;;;;;;;9.17;6.10;;;17.80;99.90;17.50;100043;;;;602306;238;24049;-81
2022/06/19 03:34:42;;;;;;;6.83;6.13;;;18.00;99.90;17.70;100053;;;;602049;238;24042;-81
2022/06/19 03:37:13;;;;;;;6.00;5.47;;;18.50;99.90;17.90;100037;;;;601847;238;24081;-81
2022/06/19 03:39:38;;;;;;;7.47;5.10;;;18.50;99.90;18.50;100035;;;;601920;238;24050;-80
2022/06/19 03:42:06;;;;;;;11.80;5.17;;;18.90;99.90;18.90;100043;;;;602482;235;24036;-81
2022/06/19 03:44:34;;;;;;;6.23;5.63;;;19.90;99.90;19.50;100038;;;;602411;238;24068;-81
2022/06/19 03:47:02;;;;;;;6.73;5.37;;;19.90;99.90;19.90;100035;;;;602070;238;24045;-82
2022/06/19 03:49:30;;;;;;;7.23;5.53;;;20.40;99.90;20.20;100028;;;;601953;238;24059;-80
2022/06/19 03:51:58;;;;;;;8.77;5.63;;;20.80;99.90;20.50;100028;;;;602110;238;24041;-81
2022/06/19 03:54:26;;;;;;;6.77;4.90;;;21.30;99.90;20.70;100028;;;;602058;238;24075;-81
2022/06/19 03:56:54;;;;;;;7.27;4.70;;;21.30;99.90;20.90;100021;;;;602141;235;23049;-82
2022/06/19 03:59:22;;;;;;;6.27;4.73;;;21.50;99.90;21.20;100036;;;;591969;241;23093;-80
2022/06/19 04:01:50;;;;;;;5.80;5.30;;;21.80;99.90;21.70;100040;;;;591532;243;24105;-81
2022/06/19 04:04:19;;;;;;;5.53;4.70;;;22.70;99.90;22.10;100035;;;;591188;243;24208;-81
2022/06/19 04:06:47;;;;;;;5.53;5.13;;;22.60;99.90;22.70;100025;;;;590951;243;24065;-82
2022/06/19 04:09:14;;;;;;;5.40;4.83;;;23.20;99.90;23.30;100023;;;;590962;243;24093;-82
2022/06/19 04:11:46;;;;;;;7.60;4.10;;;24.40;99.90;23.90;100024;;;;590844;240;24092;-83
2022/06/19 04:14:11;;;;;;;5.43;4.20;;;24.40;99.90;24.40;100027;;;;591267;240;24054;-82
2022/06/19 04:16:42;;;;;;;5.30;4.70;;;25.00;99.90;25.00;100031;;;;601878;236;24048;-83
2022/06/19 04:19:07;;;;;;;6.13;4.23;;;25.60;99.90;25.40;100028;;;;590950;243;23092;-83
2022/06/19 04:21:35;;;;;;;6.43;3.57;;;26.60;99.90;26.00;100033;;;;591236;240;23094;-85
2022/06/19 04:24:07;;;;;;;7.47;3.90;;;26.50;99.90;26.40;100034;;;;590104;243;23079;-84
2022/06/19 04:26:31;;;;;;;5.57;3.53;;;27.10;99.90;26.80;100032;;;;590690;242;24063;-84
2022/06/19 04:28:59;;;;;;;8.00;3.77;;;27.50;99.90;27.20;100023;;;;590685;243;24181;-84
2022/06/19 04:31:28;;;;;;;5.83;3.77;;;28.20;99.30;27.40;100011;;;;590890;243;23082;-85
2022/06/19 04:33:56;;;;;;;5.07;3.70;;;28.20;99.20;27.80;100001;;;;591255;243;23089;-84
2022/06/19 04:36:24;;;;;;;3.60;3.40;;;28.60;98.00;28.20;100007;;;;602049;238;23059;-84
2022/06/19 04:38:56;;;;;;;4.07;3.67;;;29.30;94.50;28.50;100017;;;;590219;243;23083;-84
2022/06/19 04:41:26;;;;;;;4.23;3.50;;;29.30;94.50;28.70;100020;;;;590323;243;23099;-85
2022/06/19 04:43:53;;;;;;;3.67;3.33;;;29.50;93.30;29.10;100021;;;;590807;243;23079;-85
2022/06/19 04:46:24;;;;;;;3.33;3.03;;;29.90;92.10;29.70;100023;;;;590835;240;24082;-81
2022/06/19 04:48:53;;;;;;;4.18;2.78;;;30.50;90.30;30.10;100012;;;;590977;242;23068;-81
2022/06/19 04:51:17;;;;;;;5.95;3.30;;;30.90;86.40;30.40;100021;;;;585923;241;24104;-82
2022/06/19 04:53:49;;;;;;;2.87;2.55;;;31.30;83.40;30.90;100028;;;;586164;241;23075;-81
2022/06/19 04:56:13;;;;;;;4.97;2.87;;;31.80;81.00;31.40;100021;;;;591027;243;23091;-82
2022/06/19 04:58:41;;;;;;;3.12;2.60;;;32.30;77.40;31.90;100014;;;;591326;239;23119;-81
2022/06/19 05:01:14;;;;;;;2.72;2.53;;;32.80;74.40;32.40;100014;;;;602464;238;23046;-81
2022/06/19 05:03:42;;;;;;;3.42;2.65;;;33.30;71.00;32.90;100003;;;;599239;238;23088;-81
2022/06/19 05:06:10;;;;;;;2.90;2.62;;;33.90;67.90;33.30;100002;;;;592694;238;23085;-81
2022/06/19 05:08:38;;;;;;;5.37;2.67;;;34.30;65.40;33.80;99997;;;;592750;236;23065;-81
2022/06/19 05:11:06;;;;;;;5.97;2.35;;;34.70;62.70;34.00;99995;;;;592448;238;23040;-82
2022/06/19 05:13:34;;;;;;;4.85;2.53;;;35.00;61.50;34.50;99992;;;;593937;238;23099;-81
2022/06/19 05:16:03;;;;;;;4.10;2.50;;;36.00;59.00;35.10;99996;;;;592111;238;24077;-82
2022/06/19 05:18:31;;;;;;;3.22;2.47;;;35.90;58.90;35.60;100002;;;;593323;238;24116;-82
2022/06/19 05:21:01;;;;;;;2.42;2.22;;;36.50;57.50;35.90;100013;;;;593570;238;23116;-82
2022/06/19 05:23:30;;;;;;;2.53;2.12;;;36.80;55.40;35.90;100000;;;;593484;238;23096;-82
2022/06/19 05:26:01;;;;;;;4.68;2.12;;;37.00;54.60;36.30;100012;;;;593579;238;23095;-81
2022/06/19 05:28:29;;;;;;;4.53;2.28;;;37.20;54.20;36.70;100002;;;;593307;238;24042;-82
2022/06/19 05:30:59;;;;;;;3.53;2.35;;;37.60;52.60;37.10;99994;;;;602588;238;23034;-82
2022/06/19 05:33:27;;;;;;;3.90;2.47;;;37.90;52.40;37.50;99990;;;;593271;238;24173;-81
2022/06/19 05:35:58;;;;;;;5.40;2.25;;;38.30;51.80;37.90;99993;;;;602670;238;23081;-81
2022/06/19 05:38:22;;;;;;;3.03;2.25;;;38.70;51.10;38.30;99996;;;;593084;238;24102;-81
2022/06/19 05:40:53;;;;;;;4.45;2.25;;;39.10;50.20;38.80;99989;;;;593301;238;24129;-81
2022/06/19 05:43:24;;;;;;;2.95;2.58;;;39.60;49.70;39.30;99979;;;;593260;238;24119;-81
2022/06/19 05:45:58;;;;;;;2.28;1.83;;;40.00;48.20;39.50;99975;;;;592364;238;23041;-82
2022/06/19 05:48:26;;;;;;;2.33;2.10;;;40.40;47.80;39.90;99977;;;;601940;235;23078;-82
2022/06/19 05:51:05;;;;;;;1.98;1.87;;;40.70;47.00;40.30;99978;;;;601825;238;23076;-82
2022/06/19 05:53:33;;;;;;;2.60;1.98;;;41.10;46.50;40.80;99980;;;;592945;238;23045;-82
2022/06/19 05:56:05;;;;;;;3.75;2.42;;;41.50;45.70;41.20;99984;;;;592964;238;24384;-80
2022/06/19 05:58:30;;;;;;;3.85;2.47;;;41.90;44.30;41.00;99992;;;;592861;238;23044;-81
2022/06/19 06:00:58;;;;;;;2.53;2.17;;;41.80;44.20;41.30;99989;;;;592867;238;26227;-81
2022/06/19 06:03:25;;;;;;;2.90;2.00;;;42.00;44.20;41.70;99992;;;;591337;238;23058;-80
2022/06/19 06:05:53;;;;;;;3.00;2.20;;;42.20;43.90;41.70;99989;;;;592933;238;23045;-80
2022/06/19 06:08:21;;;;;;;2.08;1.85;;;42.40;43.00;41.90;99983;;;;591304;238;23071;-81
2022/06/19 06:10:53;;;;;;;2.78;2.20;;;42.60;42.30;42.00;99975;;;;592904;238;23036;-80
2022/06/19 06:13:20;;;;;;;2.03;1.83;;;42.70;42.10;42.20;99975;;;;592706;238;23039;-81
2022/06/19 06:15:48;;;;;;;3.92;2.40;;;42.90;42.00;42.10;99982;;;;601665;235;23050;-81
2022/06/19 06:18:19;;;;;;;2.50;2.30;;;42.90;41.40;42.00;99987;;;;592465;238;24098;-81
2022/06/19 06:20:47;;;;;;;3.67;2.30;;;42.80;41.70;42.20;99984;;;;592843;237;23035;-81
2022/06/19 06:23:12;;;;;;;3.10;1.92;;;42.90;41.60;42.50;99989;;;;593757;238;23060;-81
2022/06/19 06:25:42;;;;;;;2.95;2.15;;;43.10;41.60;42.40;99995;;;;602923;237;24066;-81
2022/06/19 06:28:07;;;;;;;2.10;1.90;;;43.20;40.50;42.30;99990;;;;591675;238;23075;-81
2022/06/19 06:30:35;;;;;;;3.28;2.33;;;43.00;40.50;42.40;99998;;;;593114;238;23080;-82
2022/06/19 06:33:07;;;;;;;3.15;2.03;;;43.10;40.40;42.80;99995;;;;591680;238;24047;-83
2022/06/19 06:35:34;;;;;;;2.85;2.12;;;43.40;40.50;43.20;99998;;;;593012;238;23062;-81
2022/06/19 06:37:59;;;;;;;3.85;2.17;;;43.80;40.20;43.90;99997;;;;593374;238;23324;-81
2022/06/19 06:40:27;;;;;;;2.25;2.10;;;44.30;40.20;44.30;99987;;;;592965;238;23034;-84
2022/06/19 06:42:58;;;;;;;4.68;2.20;;;45.10;38.90;44.70;99983;;;;592871;238;23091;-82
2022/06/19 06:45:24;;;;;;;2.12;1.90;;;45.00;38.80;44.20;99980;;;;592864;238;23065;-82
2022/06/19 06:47:51;;;;;;;2.40;2.25;;;45.00;38.00;44.30;99979;;;;593350;238;23056;-83
2022/06/19 06:50:19;;;;;;;2.80;2.10;;;45.00;37.90;44.40;99981;;;;592960;238;23047;-84
2022/06/19 06:52:47;;;;;;;3.60;2.35;;;45.00;38.00;44.60;99977;;;;591295;238;23064;-84
2022/06/19 06:55:19;;;;;;;2.95;1.77;;;45.20;37.70;44.90;99973;;;;592842;238;23093;-83
2022/06/19 06:57:43;;;;;;;4.68;2.20;;;45.40;36.90;44.80;99976;;;;592529;238;23068;-84
2022/06/19 07:00:11;;;;;;;4.62;1.90;;;45.40;37.30;44.70;99975;;;;592579;238;23045;-82
2022/06/19 07:02:39;;;;;;;2.55;2.00;;;45.40;37.30;45.10;99979;;;;592368;238;23041;-84
2022/06/19 07:05:07;;;;;;;3.05;2.37;;;45.60;37.90;45.60;99984;;;;590998;238;23047;-85
2022/06/19 07:07:35;;;;;;;2.50;2.30;;;46.00;37.60;46.10;99995;;;;593049;238;23063;-86
2022/06/19 07:10:03;;;;;;;4.87;2.20;;;46.40;37.20;46.20;99991;;;;592672;238;24110;-85
2022/06/19 07:12:31;;;;;;;2.85;2.37;;;46.70;36.10;45.80;100015;;;;596578;238;23068;-86
2022/06/19 07:14:59;;;;;;;2.50;1.87;;;46.60;36.10;45.40;100022;;;;592790;238;23084;-85
2022/06/19 07:17:27;;;;;;;4.32;2.55;;;46.20;36.50;45.50;100022;;;;592567;238;23047;-84
2022/06/19 07:19:54;;;;;;;2.60;2.12;;;46.20;36.40;45.60;100035;;;;592791;238;23029;-85
2022/06/19 07:22:22;;;;;;;3.22;2.28;;;46.20;36.20;45.70;100033;;;;592694;238;23022;-86
2022/06/19 07:24:50;;;;;;;2.28;2.05;;;46.30;36.30;45.00;100028;;;;592625;238;24075;-83
2022/06/19 07:27:21;;;;;;;2.78;1.90;;;46.00;35.90;43.40;100034;;;;592739;235;23025;-87
2022/06/19 07:29:51;;;;;;;3.65;2.08;;;44.10;38.10;43.30;100023;;;;592386;238;23038;-87
2022/06/19 07:32:15;;;;;;;3.42;1.87;;;44.10;38.00;43.60;100009;;;;592904;237;23054;-86
2022/06/19 07:34:43;;;;;;;2.50;2.25;;;44.00;37.90;43.70;100015;;;;594134;238;24115;-85
2022/06/19 07:37:16;;;;;;;4.25;3.70;;;44.00;38.20;43.90;100007;;;;593566;238;23284;-85
2022/06/19 07:39:42;;;;;;;4.90;4.37;;;44.00;39.60;43.40;99995;;;;593327;238;23068;-84
2022/06/19 07:42:11;;;;;;;4.80;4.05;;;43.60;40.00;42.90;99997;;;;593184;238;23040;-85
2022/06/19 07:44:39;;;;;;;5.20;4.03;;;43.60;40.00;42.90;99995;;;;593240;238;23024;-86
2022/06/19 07:50:15;;;;;;;4.95;4.10;;;43.00;40.20;42.50;99983;;;;597306;238;23088;-85
2022/06/19 07:52:42;;;;;;;4.75;3.90;;;43.00;40.20;42.20;99983;;;;591487;238;23085;-84
2022/06/19 07:55:10;;;;;;;6.55;4.22;;;42.80;40.60;42.00;99976;;;;592850;238;23043;-83
2022/06/19 07:57:38;;;;;;;5.47;3.80;;;42.70;40.50;41.50;99959;;;;592270;238;23082;-82
2022/06/19 08:00:06;;;;;;;6.07;3.80;;;42.50;40.50;41.10;99957;;;;592837;238;23088;-81
2022/06/19 08:02:34;;;;;;;4.22;3.83;;;42.00;41.40;41.30;99952;;;;596600;238;23048;-82
2022/06/19 08:05:03;;;;;;;3.83;3.50;;;41.90;41.70;41.50;99955;;;;591230;238;23028;-80
2022/06/19 08:07:34;;;;;;;5.40;4.82;;;42.00;41.70;41.40;99955;;;;591100;238;23064;-80
2022/06/19 08:09:59;;;;;;;5.47;4.12;;;42.00;41.70;41.30;99943;;;;592421;238;23085;-80
2022/06/19 08:12:27;;;;;;;7.82;4.65;;;42.00;41.60;41.40;99933;;;;590960;238;23137;-83
2022/06/19 08:14:55;;;;;;;5.70;4.00;;;42.00;41.80;41.50;99920;;;;590826;238;23077;-86
2022/06/19 08:17:23;;;;;;;5.30;4.18;;;42.10;41.70;41.80;99919;;;;592698;238;24072;-85
2022/06/19 08:19:51;;;;;;;5.07;4.55;;;42.20;41.70;42.00;99913;;;;593057;238;24063;-86
2022/06/19 08:22:18;;;;;;;4.87;4.47;;;42.60;41.30;41.60;99923;;;;593048;238;23033;-82
2022/06/19 08:24:46;;;;;;;6.45;4.40;;;42.60;40.40;41.30;99925;;;;593106;235;23053;-83
2022/06/19 08:27:14;;;;;;;6.28;4.78;;;42.30;40.70;41.20;99910;;;;593080;238;23118;-86
2022/06/19 08:29:43;;;;;;;8.43;5.97;;;42.10;41.40;41.00;99902;;;;591556;235;23027;-83
2022/06/19 08:32:15;;;;;;;10.68;6.03;;;41.90;41.80;40.80;99899;;;;593081;238;23033;-84
2022/06/19 08:34:43;;;;;;;7.12;5.45;;;41.90;41.80;40.70;99890;;;;592712;238;23100;-85
2022/06/19 08:37:07;;;;;;;8.73;4.75;;;41.70;42.10;40.50;99887;;;;592805;238;23064;-82
2022/06/19 08:39:35;;;;;;;4.78;3.90;;;41.60;42.20;40.60;99903;;;;602561;238;24045;-83
2022/06/19 08:42:40;;;;;;;4.47;4.07;;;41.50;42.40;40.40;99908;;;;593023;238;23063;-82
2022/06/19 08:45:47;;;;;;;5.35;4.35;;;41.40;42.40;40.30;99909;;;;588872;238;23055;-82
2022/06/19 08:48:22;;;;;;;6.10;4.65;;;41.00;42.80;39.70;99906;;;;598349;238;35010;-79
2022/06/19 08:51:02;;;;;;;4.95;4.45;;;41.00;42.70;39.20;99898;;;;595273;238;23084;-80
2022/06/19 08:53:42;;;;;;;7.43;4.55;;;40.60;43.10;38.90;99898;;;;590879;238;23070;-82
2022/06/19 08:56:19;;;;;;;7.47;4.90;;;40.30;43.60;39.10;99906;;;;592809;238;23034;-84
2022/06/19 08:58:55;;;;;;;5.12;4.62;;;40.50;43.20;38.90;99915;;;;581359;243;24156;-82
2022/06/19 09:01:44;;;;;;;6.03;4.75;;;40.20;43.30;38.90;99916;;;;581865;243;23104;-82
2022/06/19 09:07:27;;;;;;;4.62;4.20;;;40.10;43.50;38.30;99892;;;;603070;235;23022;-81
2022/06/19 09:10:29;;;;;;;7.18;4.10;;;39.90;43.20;38.40;99889;;;;591278;238;23024;-80
2022/06/19 09:13:28;;;;;;;7.32;4.12;;;39.80;43.20;38.10;99882;;;;591044;238;23103;-82
2022/06/19 09:16:10;;;;;;;4.95;3.87;;;39.70;43.00;38.20;99883;;;;592759;238;23063;-82
2022/06/19 09:18:59;;;;;;;5.18;3.28;;;39.50;43.30;38.70;99874;;;;593097;238;24108;-83
2022/06/19 09:21:34;;;;;;;6.60;3.47;;;39.70;43.10;39.20;99877;;;;593168;238;23046;-82
2022/06/19 09:24:08;;;;;;;7.00;3.30;;;40.20;42.10;39.00;99878;;;;602576;237;23057;-81
2022/06/19 09:26:42;;;;;;;5.65;3.08;;;40.30;41.90;38.80;99875;;;;592351;238;23048;-84
2022/06/19 09:29:13;;;;;;;4.60;3.15;;;40.20;41.60;39.20;99876;;;;592408;238;23053;-83
2022/06/19 09:31:44;;;;;;;3.87;2.90;;;40.40;41.30;39.60;99902;;;;592735;238;23089;-83
2022/06/19 09:34:24;;;;;;;7.30;2.80;;;40.70;41.40;40.00;99882;;;;601248;238;23046;-82
2022/06/19 09:36:59;;;;;;;5.68;3.05;;;41.10;40.20;40.20;99885;;;;592643;238;23031;-83
2022/06/19 09:39:47;;;;;;;4.25;2.85;;;41.30;40.10;40.40;99897;;;;592523;238;23029;-81
2022/06/19 09:42:30;;;;;;;4.03;2.62;;;41.50;39.80;40.70;99897;;;;592534;238;23040;-83
2022/06/19 09:44:58;;;;;;;3.03;2.55;;;41.80;39.30;40.60;99894;;;;593008;238;23167;-84
2022/06/19 09:47:34;;;;;;;4.95;2.97;;;42.00;38.80;39.70;99890;;;;592439;238;23105;-81
2022/06/19 09:50:23;;;;;;;6.03;3.22;;;41.50;39.30;39.20;99890;;;;592510;238;23040;-81
2022/06/19 09:53:02;;;;;;;7.60;3.15;;;41.00;39.60;38.50;99883;;;;592654;238;23040;-83
2022/06/19 09:55:30;;;;;;;5.80;2.65;;;40.30;41.20;38.00;99868;;;;593336;237;23082;-84
2022/06/19 09:58:06;;;;;;;5.75;3.10;;;39.80;41.20;37.60;99867;;;;593706;238;23114;-83
2022/06/19 10:00:34;;;;;;;7.05;2.83;;;39.40;41.30;37.70;99857;;;;583613;238;24071;-84
2022/06/19 10:03:12;;;;;;;3.60;2.40;;;39.30;41.40;38.00;99845;;;;602791;235;23053;-84
2022/06/19 10:05:45;;;;;;;5.82;2.95;;;39.40;41.20;37.70;99845;;;;602876;238;23061;-84
2022/06/19 10:08:31;;;;;;;4.00;2.35;;;39.40;41.20;37.30;99839;;;;593325;238;23072;-84
2022/06/19 10:11:08;;;;;;;3.45;2.33;;;39.10;41.50;37.10;99837;;;;593556;238;23052;-83
2022/06/19 10:13:51;;;;;;;3.67;2.20;;;38.90;42.20;36.60;99844;;;;592998;238;23063;-83
2022/06/19 10:16:52;;;;;;;5.28;2.30;;;38.40;42.00;36.10;99842;;;;591754;238;24068;-80
2022/06/19 10:19:20;;;;;;;6.10;2.95;;;37.80;42.70;35.60;99829;;;;575972;245;23111;-82
2022/06/19 10:22:23;;;;;;;5.20;2.03;;;37.20;43.50;35.50;99835;;;;566022;250;23266;-84
2022/06/19 10:25:08;;;;;;;3.85;2.67;;;36.90;44.00;34.80;99841;;;;587416;235;23054;-84
2022/06/19 10:27:52;;;;;;;4.18;2.30;;;36.40;44.00;34.30;99850;;;;598286;238;23073;-79
2022/06/19 10:30:22;;;;;;;6.97;2.47;;;35.80;45.20;33.70;99859;;;;593705;238;24035;-81
2022/06/19 10:32:55;;;;;;;3.95;2.25;;;35.00;45.70;32.90;99869;;;;591934;238;23097;-81
2022/06/19 10:35:44;;;;;;;4.45;2.60;;;34.30;46.10;31.90;99873;;;;593374;235;23050;-82
2022/06/19 10:38:27;;;;;;;8.75;2.62;;;33.40;46.50;31.20;99879;;;;593525;238;24039;-82
2022/06/19 10:42:00;;;;;;;7.05;1.90;;;32.50;48.00;30.50;99869;;;;592915;238;23093;-83
2022/06/19 10:43:54;;;;;;;4.37;1.90;;;30.90;49.90;29.80;99857;;;;591649;238;23056;-81
2022/06/19 10:46:26;;;;;;;7.00;1.90;;;30.70;49.70;28.80;99842;;;;593217;238;23055;-81
2022/06/19 10:49:08;;;;;;;4.40;1.67;;;29.90;51.00;28.20;99842;;;;592432;238;23099;-85
2022/06/19 10:51:47;;;;;;;5.45;1.95;;;29.20;52.40;27.70;99841;;;;593475;238;23065;-87
2022/06/19 10:54:33;;;;;;;4.37;1.57;;;28.60;53.40;27.30;99847;;;;592671;238;23042;-81
2022/06/19 10:57:25;;;;;;;6.70;1.87;;;28.00;53.70;26.80;99829;;;;593152;238;24078;-86
2022/06/19 10:59:52;;;;;;;10.30;2.00;;;27.50;54.40;26.10;99821;;;;602899;238;24046;-84
2022/06/19 11:05:33;;;;;;;5.40;1.80;;;26.30;56.00;25.30;99825;;;;592818;238;24058;-81
2022/06/19 11:08:01;;;;;;;5.40;1.50;;;25.90;57.50;24.80;99832;;;;593678;238;24019;-82
2022/06/19 11:10:44;;;;;;;8.60;1.73;;;25.50;58.40;24.00;99811;;;;593768;238;24149;-82
2022/06/19 11:13:12;;;;;;;9.13;1.90;;;24.90;62.30;23.40;99809;;;;592339;238;23074;-82
2022/06/19 11:15:48;;;;;;;5.93;2.03;;;24.20;65.40;22.70;99801;;;;593538;238;24102;-81
2022/06/19 11:18:20;;;;;;;4.00;1.37;;;23.60;66.50;22.10;99806;;;;592359;238;24039;-82
2022/06/19 11:20:59;;;;;;;5.70;1.87;;;23.00;69.20;21.70;99789;;;;602554;238;24031;-83
2022/06/19 11:23:36;;;;;;;7.73;1.90;;;22.40;71.20;21.30;99786;;;;593215;238;24088;-84
2022/06/19 11:26:14;;;;;;;7.67;2.13;;;21.90;73.10;21.10;99774;;;;602779;238;23052;-85
2022/06/19 11:28:42;;;;;;;6.77;1.33;;;21.40;75.60;20.80;99774;;;;601599;235;24062;-84
2022/06/19 11:31:10;;;;;;;5.57;1.77;;;21.40;74.80;20.40;99755;;;;593580;238;24093;-83
2022/06/19 11:33:38;;;;;;;8.80;1.83;;;21.10;74.60;20.10;99755;;;;592704;238;23061;-83
2022/06/19 11:36:08;;;;;;;5.87;1.60;;;20.80;76.30;19.90;99740;;;;593259;238;24015;-83
2022/06/19 11:38:39;;;;;;;11.20;2.07;;;20.60;77.90;19.80;99740;;;;593388;238;24039;-87
2022/06/19 11:41:22;;;;;;;8.57;2.07;;;20.50;76.60;19.70;99741;;;;593549;237;24046;-84